sensor_id;sensor_type;location;lat;lon;timestamp;temperature;humidity
33927;DHT22;20485;50.992;5.550;2023-04-15T00:00:37;5.50;99.90
33927;DHT22;20485;50.992;5.550;2023-04-15T00:03:03;4.20;99.90
33927;DHT22;20485;50.992;5.550;2023-04-15T00:05:29;4.10;99.90
33927;DHT22;20485;50.992;5.550;2023-04-15T00:07:56;4.20;99.90
33927;DHT22;20485;50.992;5.550;2023-04-15T00:10:28;4.10;99.90
33927;DHT22;20485;50.992;5.550;2023-04-15T00:12:54;4.10;99.90
33927;DHT22;20485;50.992;5.550;2023-04-15T00:15:19;4.20;99.90
33927;DHT22;20485;50.992;5.550;2023-04-15T00:17:45;4.20;99.90
33927;DHT22;20485;50.992;5.550;2023-04-15T00:20:11;4.30;99.90
33927;DHT22;20485;50.992;5.550;2023-04-15T00:22:37;4.20;99.90
33927;DHT22;20485;50.992;5.550;2023-04-15T00:25:03;4.20;99.90
33927;DHT22;20485;50.992;5.550;2023-04-15T00:27:28;4.20;99.90
33927;DHT22;20485;50.992;5.550;2023-04-15T00:29:54;4.20;99.90
33927;DHT22;20485;50.992;5.550;2023-04-15T00:32:20;4.10;99.90
33927;DHT22;20485;50.992;5.550;2023-04-15T00:34:46;4.10;99.90
33927;DHT22;20485;50.992;5.550;2023-04-15T00:37:12;4.00;99.90
33927;DHT22;20485;50.992;5.550;2023-04-15T00:39:37;3.90;99.90
33927;DHT22;20485;50.992;5.550;2023-04-15T00:42:04;4.00;99.90
33927;DHT22;20485;50.992;5.550;2023-04-15T00:44:30;5.40;99.90
33927;DHT22;20485;50.992;5.550;2023-04-15T00:46:56;3.80;99.90
33927;DHT22;20485;50.992;5.550;2023-04-15T00:49:22;3.80;99.90
33927;DHT22;20485;50.992;5.550;2023-04-15T00:51:48;3.80;99.90
33927;DHT22;20485;50.992;5.550;2023-04-15T00:54:14;4.50;99.90
33927;DHT22;20485;50.992;5.550;2023-04-15T00:56:41;3.90;99.90
33927;DHT22;20485;50.992;5.550;2023-04-15T00:59:07;3.90;99.90
33927;DHT22;20485;50.992;5.550;2023-04-15T01:01:34;3.90;99.90
33927;DHT22;20485;50.992;5.550;2023-04-15T01:04:01;3.90;99.90
33927;DHT22;20485;50.992;5.550;2023-04-15T01:06:27;4.00;99.90
33927;DHT22;20485;50.992;5.550;2023-04-15T01:08:54;4.00;99.90
33927;DHT22;20485;50.992;5.550;2023-04-15T01:11:20;4.00;99.90
33927;DHT22;20485;50.992;5.550;2023-04-15T01:13:49;4.00;99.90
33927;DHT22;20485;50.992;5.550;2023-04-15T01:16:15;4.00;99.90
33927;DHT22;20485;50.992;5.550;2023-04-15T01:18:42;4.10;99.90
33927;DHT22;20485;50.992;5.550;2023-04-15T01:21:08;4.20;99.90
33927;DHT22;20485;50.992;5.550;2023-04-15T01:23:35;4.40;99.90
33927;DHT22;20485;50.992;5.550;2023-04-15T01:26:03;4.20;99.90
33927;DHT22;20485;50.992;5.550;2023-04-15T01:28:30;4.20;99.90
33927;DHT22;20485;50.992;5.550;2023-04-15T01:31:12;4.20;99.90
33927;DHT22;20485;50.992;5.550;2023-04-15T01:33:39;4.20;99.90
33927;DHT22;20485;50.992;5.550;2023-04-15T01:36:06;4.40;99.90
33927;DHT22;20485;50.992;5.550;2023-04-15T01:38:33;4.40;99.90
33927;DHT22;20485;50.992;5.550;2023-04-15T01:41:03;4.70;99.90
33927;DHT22;20485;50.992;5.550;2023-04-15T01:43:31;4.40;99.90
33927;DHT22;20485;50.992;5.550;2023-04-15T01:45:57;4.50;99.90
33927;DHT22;20485;50.992;5.550;2023-04-15T01:48:36;4.60;99.90
33927;DHT22;20485;50.992;5.550;2023-04-15T01:51:13;4.60;99.90
33927;DHT22;20485;50.992;5.550;2023-04-15T01:53:39;4.60;99.90
33927;DHT22;20485;50.992;5.550;2023-04-15T01:56:05;4.60;99.90
33927;DHT22;20485;50.992;5.550;2023-04-15T01:58:31;4.70;99.90
33927;DHT22;20485;50.992;5.550;2023-04-15T02:00:57;4.70;99.90
33927;DHT22;20485;50.992;5.550;2023-04-15T02:03:24;4.80;99.90
33927;DHT22;20485;50.992;5.550;2023-04-15T02:05:50;4.70;99.90
33927;DHT22;20485;50.992;5.550;2023-04-15T02:08:16;4.70;99.90
33927;DHT22;20485;50.992;5.550;2023-04-15T02:10:41;4.80;99.90
33927;DHT22;20485;50.992;5.550;2023-04-15T02:13:07;4.80;99.90
33927;DHT22;20485;50.992;5.550;2023-04-15T02:15:33;4.90;99.90
33927;DHT22;20485;50.992;5.550;2023-04-15T02:17:59;4.90;99.90
33927;DHT22;20485;50.992;5.550;2023-04-15T02:20:25;4.90;99.90
33927;DHT22;20485;50.992;5.550;2023-04-15T02:22:51;4.90;99.90
33927;DHT22;20485;50.992;5.550;2023-04-15T02:25:16;4.90;99.90
33927;DHT22;20485;50.992;5.550;2023-04-15T02:27:42;5.00;99.90
33927;DHT22;20485;50.992;5.550;2023-04-15T02:30:09;5.00;99.90
33927;DHT22;20485;50.992;5.550;2023-04-15T02:32:35;5.00;99.90
33927;DHT22;20485;50.992;5.550;2023-04-15T02:35:03;5.00;99.90
33927;DHT22;20485;50.992;5.550;2023-04-15T02:37:30;5.10;99.90
33927;DHT22;20485;50.992;5.550;2023-04-15T02:39:56;5.10;99.90
33927;DHT22;20485;50.992;5.550;2023-04-15T02:42:22;5.10;99.90
33927;DHT22;20485;50.992;5.550;2023-04-15T02:44:47;5.10;99.90
33927;DHT22;20485;50.992;5.550;2023-04-15T02:47:13;6.20;99.90
33927;DHT22;20485;50.992;5.550;2023-04-15T02:49:40;5.10;99.90
33927;DHT22;20485;50.992;5.550;2023-04-15T02:52:06;5.10;99.90
33927;DHT22;20485;50.992;5.550;2023-04-15T02:54:32;5.10;99.90
33927;DHT22;20485;50.992;5.550;2023-04-15T02:56:58;5.20;99.90
33927;DHT22;20485;50.992;5.550;2023-04-15T02:59:24;5.20;99.90
33927;DHT22;20485;50.992;5.550;2023-04-15T03:01:50;5.30;99.90
33927;DHT22;20485;50.992;5.550;2023-04-15T03:04:15;5.30;99.90
33927;DHT22;20485;50.992;5.550;2023-04-15T03:06:41;5.30;99.90
33927;DHT22;20485;50.992;5.550;2023-04-15T03:09:07;6.10;99.90
33927;DHT22;20485;50.992;5.550;2023-04-15T03:11:33;5.40;99.90
33927;DHT22;20485;50.992;5.550;2023-04-15T03:13:59;5.40;99.90
33927;DHT22;20485;50.992;5.550;2023-04-15T03:16:25;5.40;99.90
33927;DHT22;20485;50.992;5.550;2023-04-15T03:18:51;5.40;99.90
33927;DHT22;20485;50.992;5.550;2023-04-15T03:21:17;5.60;99.90
33927;DHT22;20485;50.992;5.550;2023-04-15T03:23:44;5.40;99.90
33927;DHT22;20485;50.992;5.550;2023-04-15T03:26:24;5.40;99.90
33927;DHT22;20485;50.992;5.550;2023-04-15T03:28:50;5.40;99.90
33927;DHT22;20485;50.992;5.550;2023-04-15T03:31:16;5.40;99.90
33927;DHT22;20485;50.992;5.550;2023-04-15T03:33:41;5.40;99.90
33927;DHT22;20485;50.992;5.550;2023-04-15T03:36:07;5.40;99.90
33927;DHT22;20485;50.992;5.550;2023-04-15T03:38:33;5.40;99.90
33927;DHT22;20485;50.992;5.550;2023-04-15T03:40:58;5.50;99.90
33927;DHT22;20485;50.992;5.550;2023-04-15T03:43:24;5.40;99.90
33927;DHT22;20485;50.992;5.550;2023-04-15T03:45:50;5.50;99.90
33927;DHT22;20485;50.992;5.550;2023-04-15T03:48:15;5.50;99.90
33927;DHT22;20485;50.992;5.550;2023-04-15T03:50:41;5.50;99.90
33927;DHT22;20485;50.992;5.550;2023-04-15T03:53:07;5.40;99.90
33927;DHT22;20485;50.992;5.550;2023-04-15T03:55:32;5.40;99.90
33927;DHT22;20485;50.992;5.550;2023-04-15T03:57:58;5.50;99.90
33927;DHT22;20485;50.992;5.550;2023-04-15T04:00:24;5.50;99.90
33927;DHT22;20485;50.992;5.550;2023-04-15T04:02:49;5.50;99.90
33927;DHT22;20485;50.992;5.550;2023-04-15T04:05:16;5.80;99.90
33927;DHT22;20485;50.992;5.550;2023-04-15T04:07:41;5.40;99.90
33927;DHT22;20485;50.992;5.550;2023-04-15T04:10:07;5.40;99.90
33927;DHT22;20485;50.992;5.550;2023-04-15T04:12:33;5.40;99.90
33927;DHT22;20485;50.992;5.550;2023-04-15T04:14:58;5.40;99.90
33927;DHT22;20485;50.992;5.550;2023-04-15T04:17:24;5.90;99.90
33927;DHT22;20485;50.992;5.550;2023-04-15T04:19:50;5.50;99.90
33927;DHT22;20485;50.992;5.550;2023-04-15T04:22:15;5.50;99.90
33927;DHT22;20485;50.992;5.550;2023-04-15T04:24:41;5.60;99.90
33927;DHT22;20485;50.992;5.550;2023-04-15T04:27:07;5.50;99.90
33927;DHT22;20485;50.992;5.550;2023-04-15T04:29:32;5.60;99.90
33927;DHT22;20485;50.992;5.550;2023-04-15T04:31:58;5.60;99.90
33927;DHT22;20485;50.992;5.550;2023-04-15T04:34:24;5.60;99.90
33927;DHT22;20485;50.992;5.550;2023-04-15T04:36:49;5.70;99.90
33927;DHT22;20485;50.992;5.550;2023-04-15T04:39:15;5.70;99.90
33927;DHT22;20485;50.992;5.550;2023-04-15T04:41:40;5.70;99.90
33927;DHT22;20485;50.992;5.550;2023-04-15T04:44:06;5.80;99.90
33927;DHT22;20485;50.992;5.550;2023-04-15T04:46:32;5.80;99.90
33927;DHT22;20485;50.992;5.550;2023-04-15T04:48:57;5.80;99.90
33927;DHT22;20485;50.992;5.550;2023-04-15T04:51:23;5.80;99.90
33927;DHT22;20485;50.992;5.550;2023-04-15T04:53:49;5.80;99.90
33927;DHT22;20485;50.992;5.550;2023-04-15T04:56:14;5.80;99.90
33927;DHT22;20485;50.992;5.550;2023-04-15T04:58:40;7.20;99.90
33927;DHT22;20485;50.992;5.550;2023-04-15T05:01:06;5.70;99.90
33927;DHT22;20485;50.992;5.550;2023-04-15T05:03:32;5.70;99.90
33927;DHT22;20485;50.992;5.550;2023-04-15T05:05:58;5.70;99.90
33927;DHT22;20485;50.992;5.550;2023-04-15T05:08:23;5.70;99.90
33927;DHT22;20485;50.992;5.550;2023-04-15T05:10:49;5.70;99.90
33927;DHT22;20485;50.992;5.550;2023-04-15T05:13:15;5.70;99.90
33927;DHT22;20485;50.992;5.550;2023-04-15T05:15:41;5.70;99.90
33927;DHT22;20485;50.992;5.550;2023-04-15T05:18:07;5.70;99.90
33927;DHT22;20485;50.992;5.550;2023-04-15T05:20:33;5.70;99.90
33927;DHT22;20485;50.992;5.550;2023-04-15T05:22:59;5.70;99.90
33927;DHT22;20485;50.992;5.550;2023-04-15T05:25:24;5.70;99.90
33927;DHT22;20485;50.992;5.550;2023-04-15T05:27:50;5.70;99.90
33927;DHT22;20485;50.992;5.550;2023-04-15T05:30:16;5.80;99.90
33927;DHT22;20485;50.992;5.550;2023-04-15T05:32:42;5.70;99.90
33927;DHT22;20485;50.992;5.550;2023-04-15T05:35:07;6.60;99.90
33927;DHT22;20485;50.992;5.550;2023-04-15T05:37:33;5.80;99.90
33927;DHT22;20485;50.992;5.550;2023-04-15T05:39:59;5.80;99.90
33927;DHT22;20485;50.992;5.550;2023-04-15T05:42:25;5.90;99.90
33927;DHT22;20485;50.992;5.550;2023-04-15T05:44:51;5.90;99.90
33927;DHT22;20485;50.992;5.550;2023-04-15T05:47:16;7.10;99.90
33927;DHT22;20485;50.992;5.550;2023-04-15T05:49:42;6.00;99.90
33927;DHT22;20485;50.992;5.550;2023-04-15T05:52:08;6.00;99.90
33927;DHT22;20485;50.992;5.550;2023-04-15T05:54:33;6.10;99.90
33927;DHT22;20485;50.992;5.550;2023-04-15T05:56:59;6.10;99.90
33927;DHT22;20485;50.992;5.550;2023-04-15T05:59:25;6.10;99.90
33927;DHT22;20485;50.992;5.550;2023-04-15T06:01:51;6.10;99.90
33927;DHT22;20485;50.992;5.550;2023-04-15T06:04:17;6.30;99.90
33927;DHT22;20485;50.992;5.550;2023-04-15T06:06:42;6.30;99.90
33927;DHT22;20485;50.992;5.550;2023-04-15T06:09:09;6.20;99.90
33927;DHT22;20485;50.992;5.550;2023-04-15T06:11:34;6.30;99.90
33927;DHT22;20485;50.992;5.550;2023-04-15T06:14:00;6.40;99.90
33927;DHT22;20485;50.992;5.550;2023-04-15T06:16:26;6.40;99.90
33927;DHT22;20485;50.992;5.550;2023-04-15T06:18:52;6.50;99.90
33927;DHT22;20485;50.992;5.550;2023-04-15T06:21:17;6.50;99.90
33927;DHT22;20485;50.992;5.550;2023-04-15T06:23:43;6.50;99.90
33927;DHT22;20485;50.992;5.550;2023-04-15T06:26:09;6.60;99.90
33927;DHT22;20485;50.992;5.550;2023-04-15T06:28:35;6.60;99.90
33927;DHT22;20485;50.992;5.550;2023-04-15T06:31:00;6.60;99.90
33927;DHT22;20485;50.992;5.550;2023-04-15T06:33:26;6.60;99.90
33927;DHT22;20485;50.992;5.550;2023-04-15T06:35:52;6.60;99.90
33927;DHT22;20485;50.992;5.550;2023-04-15T06:38:18;6.70;99.90
33927;DHT22;20485;50.992;5.550;2023-04-15T06:40:43;6.70;99.90
33927;DHT22;20485;50.992;5.550;2023-04-15T06:43:09;6.80;99.90
33927;DHT22;20485;50.992;5.550;2023-04-15T06:45:35;6.90;99.90
33927;DHT22;20485;50.992;5.550;2023-04-15T06:48:00;6.90;99.90
33927;DHT22;20485;50.992;5.550;2023-04-15T06:50:26;6.90;99.90
33927;DHT22;20485;50.992;5.550;2023-04-15T06:52:55;7.10;99.90
33927;DHT22;20485;50.992;5.550;2023-04-15T06:55:21;7.00;99.90
33927;DHT22;20485;50.992;5.550;2023-04-15T06:57:47;7.20;99.90
33927;DHT22;20485;50.992;5.550;2023-04-15T07:00:13;7.30;99.90
33927;DHT22;20485;50.992;5.550;2023-04-15T07:02:39;7.40;99.90
33927;DHT22;20485;50.992;5.550;2023-04-15T07:05:05;7.40;99.90
33927;DHT22;20485;50.992;5.550;2023-04-15T07:07:31;7.50;99.90
33927;DHT22;20485;50.992;5.550;2023-04-15T07:09:57;7.60;99.90
33927;DHT22;20485;50.992;5.550;2023-04-15T07:19:06;7.20;99.90
33927;DHT22;20485;50.992;5.550;2023-04-15T07:21:34;8.00;99.90
33927;DHT22;20485;50.992;5.550;2023-04-15T07:23:59;8.10;99.90
33927;DHT22;20485;50.992;5.550;2023-04-15T07:26:25;8.20;99.90
33927;DHT22;20485;50.992;5.550;2023-04-15T07:28:51;8.30;99.90
33927;DHT22;20485;50.992;5.550;2023-04-15T07:31:17;8.30;99.90
33927;DHT22;20485;50.992;5.550;2023-04-15T07:33:42;8.40;99.90
33927;DHT22;20485;50.992;5.550;2023-04-15T07:36:08;8.50;99.90
33927;DHT22;20485;50.992;5.550;2023-04-15T07:38:34;8.60;99.90
33927;DHT22;20485;50.992;5.550;2023-04-15T07:41:00;8.70;99.90
33927;DHT22;20485;50.992;5.550;2023-04-15T07:43:26;8.80;99.90
33927;DHT22;20485;50.992;5.550;2023-04-15T07:45:51;8.70;99.90
33927;DHT22;20485;50.992;5.550;2023-04-15T07:48:17;8.80;99.90
33927;DHT22;20485;50.992;5.550;2023-04-15T07:50:43;8.90;99.90
33927;DHT22;20485;50.992;5.550;2023-04-15T07:53:08;9.00;99.90
33927;DHT22;20485;50.992;5.550;2023-04-15T07:55:34;9.00;99.90
33927;DHT22;20485;50.992;5.550;2023-04-15T07:57:59;9.10;99.90
33927;DHT22;20485;50.992;5.550;2023-04-15T08:00:28;9.10;99.90
33927;DHT22;20485;50.992;5.550;2023-04-15T08:02:55;9.30;99.90
33927;DHT22;20485;50.992;5.550;2023-04-15T08:05:21;9.30;99.90
33927;DHT22;20485;50.992;5.550;2023-04-15T08:07:47;9.30;99.90
33927;DHT22;20485;50.992;5.550;2023-04-15T08:10:13;9.30;99.90
33927;DHT22;20485;50.992;5.550;2023-04-15T08:12:39;9.40;99.90
33927;DHT22;20485;50.992;5.550;2023-04-15T08:15:05;9.40;99.90
33927;DHT22;20485;50.992;5.550;2023-04-15T08:17:32;9.50;99.90
33927;DHT22;20485;50.992;5.550;2023-04-15T08:19:58;9.50;99.90
33927;DHT22;20485;50.992;5.550;2023-04-15T08:22:24;9.40;99.90
33927;DHT22;20485;50.992;5.550;2023-04-15T08:24:49;9.50;99.90
33927;DHT22;20485;50.992;5.550;2023-04-15T08:27:16;9.60;99.90
33927;DHT22;20485;50.992;5.550;2023-04-15T08:29:41;9.60;99.90
33927;DHT22;20485;50.992;5.550;2023-04-15T08:32:07;9.60;99.90
33927;DHT22;20485;50.992;5.550;2023-04-15T08:34:34;9.50;99.90
33927;DHT22;20485;50.992;5.550;2023-04-15T08:36:59;9.60;99.90
33927;DHT22;20485;50.992;5.550;2023-04-15T08:39:25;9.70;99.90
33927;DHT22;20485;50.992;5.550;2023-04-15T08:41:59;9.80;99.90
33927;DHT22;20485;50.992;5.550;2023-04-15T08:44:29;9.90;99.90
33927;DHT22;20485;50.992;5.550;2023-04-15T08:47:00;10.00;99.90
33927;DHT22;20485;50.992;5.550;2023-04-15T08:49:28;10.10;99.90
33927;DHT22;20485;50.992;5.550;2023-04-15T08:51:54;10.20;99.90
33927;DHT22;20485;50.992;5.550;2023-04-15T08:54:21;10.30;99.90
33927;DHT22;20485;50.992;5.550;2023-04-15T08:56:47;10.30;99.90
33927;DHT22;20485;50.992;5.550;2023-04-15T08:59:13;10.40;99.90
33927;DHT22;20485;50.992;5.550;2023-04-15T09:01:41;10.60;99.90
33927;DHT22;20485;50.992;5.550;2023-04-15T09:04:07;10.70;99.90
33927;DHT22;20485;50.992;5.550;2023-04-15T09:06:33;10.60;99.90
33927;DHT22;20485;50.992;5.550;2023-04-15T09:08:59;10.70;99.90
33927;DHT22;20485;50.992;5.550;2023-04-15T09:11:25;10.80;99.90
33927;DHT22;20485;50.992;5.550;2023-04-15T09:13:51;10.80;99.90
33927;DHT22;20485;50.992;5.550;2023-04-15T09:16:17;10.90;99.90
33927;DHT22;20485;50.992;5.550;2023-04-15T09:18:43;10.90;99.90
33927;DHT22;20485;50.992;5.550;2023-04-15T09:21:11;10.90;99.90
33927;DHT22;20485;50.992;5.550;2023-04-15T09:23:38;11.10;99.90
33927;DHT22;20485;50.992;5.550;2023-04-15T09:26:04;11.30;99.90
33927;DHT22;20485;50.992;5.550;2023-04-15T09:28:31;11.40;99.90
33927;DHT22;20485;50.992;5.550;2023-04-15T09:31:00;11.30;99.90
33927;DHT22;20485;50.992;5.550;2023-04-15T09:33:27;11.30;99.90
33927;DHT22;20485;50.992;5.550;2023-04-15T09:36:00;11.40;99.90
33927;DHT22;20485;50.992;5.550;2023-04-15T09:38:27;11.40;99.90
33927;DHT22;20485;50.992;5.550;2023-04-15T09:40:53;11.50;99.90
33927;DHT22;20485;50.992;5.550;2023-04-15T09:43:18;11.50;99.90
33927;DHT22;20485;50.992;5.550;2023-04-15T09:45:52;11.40;99.90
33927;DHT22;20485;50.992;5.550;2023-04-15T09:48:21;11.60;99.90
33927;DHT22;20485;50.992;5.550;2023-04-15T09:50:48;11.60;99.90
33927;DHT22;20485;50.992;5.550;2023-04-15T09:53:19;11.70;99.90
33927;DHT22;20485;50.992;5.550;2023-04-15T09:58:21;11.80;99.90
33927;DHT22;20485;50.992;5.550;2023-04-15T10:00:48;11.60;99.90
33927;DHT22;20485;50.992;5.550;2023-04-15T10:03:26;11.60;99.90
33927;DHT22;20485;50.992;5.550;2023-04-15T10:05:54;11.60;99.90
33927;DHT22;20485;50.992;5.550;2023-04-15T10:08:22;11.60;99.90
33927;DHT22;20485;50.992;5.550;2023-04-15T10:10:49;11.60;99.90
33927;DHT22;20485;50.992;5.550;2023-04-15T10:13:25;11.70;99.90
33927;DHT22;20485;50.992;5.550;2023-04-15T10:16:05;11.80;99.90
33927;DHT22;20485;50.992;5.550;2023-04-15T10:18:34;11.80;99.90
33927;DHT22;20485;50.992;5.550;2023-04-15T10:21:01;11.90;99.90
33927;DHT22;20485;50.992;5.550;2023-04-15T10:23:27;11.90;99.90
33927;DHT22;20485;50.992;5.550;2023-04-15T10:25:53;11.90;99.90
33927;DHT22;20485;50.992;5.550;2023-04-15T10:28:20;12.00;99.90
33927;DHT22;20485;50.992;5.550;2023-04-15T10:30:49;12.20;99.90
33927;DHT22;20485;50.992;5.550;2023-04-15T10:33:21;12.30;99.90
33927;DHT22;20485;50.992;5.550;2023-04-15T10:35:52;12.50;99.90
33927;DHT22;20485;50.992;5.550;2023-04-15T10:38:32;12.60;99.90
33927;DHT22;20485;50.992;5.550;2023-04-15T10:41:20;12.60;99.90
33927;DHT22;20485;50.992;5.550;2023-04-15T10:44:00;12.60;99.90
33927;DHT22;20485;50.992;5.550;2023-04-15T10:46:36;12.60;99.90
33927;DHT22;20485;50.992;5.550;2023-04-15T10:49:13;12.80;99.90
33927;DHT22;20485;50.992;5.550;2023-04-15T10:51:40;12.80;99.90
33927;DHT22;20485;50.992;5.550;2023-04-15T10:56:52;12.70;99.90
33927;DHT22;20485;50.992;5.550;2023-04-15T10:59:32;12.50;99.90
33927;DHT22;20485;50.992;5.550;2023-04-15T11:02:05;12.60;99.90
33927;DHT22;20485;50.992;5.550;2023-04-15T11:04:50;12.50;99.90
33927;DHT22;20485;50.992;5.550;2023-04-15T11:07:33;12.70;99.90
33927;DHT22;20485;50.992;5.550;2023-04-15T11:09:59;12.70;99.90
33927;DHT22;20485;50.992;5.550;2023-04-15T11:12:36;12.70;99.90
33927;DHT22;20485;50.992;5.550;2023-04-15T11:15:30;12.90;99.90
33927;DHT22;20485;50.992;5.550;2023-04-15T11:17:58;13.00;99.90
33927;DHT22;20485;50.992;5.550;2023-04-15T11:20:24;12.90;99.90
33927;DHT22;20485;50.992;5.550;2023-04-15T11:22:54;13.10;99.90
33927;DHT22;20485;50.992;5.550;2023-04-15T11:25:34;13.20;99.90
33927;DHT22;20485;50.992;5.550;2023-04-15T11:28:01;13.40;99.90
33927;DHT22;20485;50.992;5.550;2023-04-15T11:30:29;13.50;99.90
33927;DHT22;20485;50.992;5.550;2023-04-15T11:33:06;13.30;99.90
33927;DHT22;20485;50.992;5.550;2023-04-15T11:35:33;13.40;99.90
33927;DHT22;20485;50.992;5.550;2023-04-15T11:38:03;13.40;99.90
33927;DHT22;20485;50.992;5.550;2023-04-15T11:40:30;13.10;99.90
33927;DHT22;20485;50.992;5.550;2023-04-15T11:43:16;13.20;99.90
33927;DHT22;20485;50.992;5.550;2023-04-15T11:45:49;13.40;99.90
33927;DHT22;20485;50.992;5.550;2023-04-15T11:48:16;13.30;99.90
33927;DHT22;20485;50.992;5.550;2023-04-15T11:50:43;13.50;99.90
33927;DHT22;20485;50.992;5.550;2023-04-15T11:53:11;13.50;99.90
33927;DHT22;20485;50.992;5.550;2023-04-15T11:55:45;13.60;99.90
33927;DHT22;20485;50.992;5.550;2023-04-15T11:58:22;13.60;99.90
33927;DHT22;20485;50.992;5.550;2023-04-15T12:00:52;13.70;99.90
33927;DHT22;20485;50.992;5.550;2023-04-15T12:06:05;13.80;99.90
33927;DHT22;20485;50.992;5.550;2023-04-15T12:11:39;14.10;99.90
33927;DHT22;20485;50.992;5.550;2023-04-15T12:14:07;13.90;99.90
33927;DHT22;20485;50.992;5.550;2023-04-15T12:16:34;13.80;99.90
33927;DHT22;20485;50.992;5.550;2023-04-15T12:19:04;13.90;99.90
33927;DHT22;20485;50.992;5.550;2023-04-15T12:21:34;14.20;99.90
33927;DHT22;20485;50.992;5.550;2023-04-15T12:24:05;14.10;99.90
33927;DHT22;20485;50.992;5.550;2023-04-15T12:26:55;14.00;99.90
33927;DHT22;20485;50.992;5.550;2023-04-15T12:29:26;13.90;99.90
33927;DHT22;20485;50.992;5.550;2023-04-15T12:31:57;14.10;99.90
33927;DHT22;20485;50.992;5.550;2023-04-15T12:37:01;14.30;99.90
33927;DHT22;20485;50.992;5.550;2023-04-15T12:39:29;14.40;99.90
33927;DHT22;20485;50.992;5.550;2023-04-15T12:41:55;14.60;99.90
33927;DHT22;20485;50.992;5.550;2023-04-15T12:44:22;14.60;99.90
33927;DHT22;20485;50.992;5.550;2023-04-15T12:46:49;14.70;99.90
33927;DHT22;20485;50.992;5.550;2023-04-15T12:49:15;14.80;99.90
33927;DHT22;20485;50.992;5.550;2023-04-15T12:51:44;14.80;99.90
33927;DHT22;20485;50.992;5.550;2023-04-15T12:54:10;14.80;99.90
33927;DHT22;20485;50.992;5.550;2023-04-15T12:56:36;14.90;99.90
33927;DHT22;20485;50.992;5.550;2023-04-15T12:59:01;14.60;99.90
33927;DHT22;20485;50.992;5.550;2023-04-15T13:01:27;14.40;99.90
33927;DHT22;20485;50.992;5.550;2023-04-15T13:03:53;14.30;99.90
33927;DHT22;20485;50.992;5.550;2023-04-15T13:06:20;14.30;99.90
33927;DHT22;20485;50.992;5.550;2023-04-15T13:08:46;14.40;99.90
33927;DHT22;20485;50.992;5.550;2023-04-15T13:11:11;14.40;99.90
33927;DHT22;20485;50.992;5.550;2023-04-15T13:13:37;14.80;99.90
33927;DHT22;20485;50.992;5.550;2023-04-15T13:16:03;14.80;99.90
33927;DHT22;20485;50.992;5.550;2023-04-15T13:18:29;14.90;99.90
33927;DHT22;20485;50.992;5.550;2023-04-15T13:20:55;14.90;99.90
33927;DHT22;20485;50.992;5.550;2023-04-15T13:23:21;14.90;99.90
33927;DHT22;20485;50.992;5.550;2023-04-15T13:25:47;14.90;99.90
33927;DHT22;20485;50.992;5.550;2023-04-15T13:28:13;14.90;99.90
33927;DHT22;20485;50.992;5.550;2023-04-15T13:30:39;14.70;99.90
33927;DHT22;20485;50.992;5.550;2023-04-15T13:33:05;14.60;99.90
33927;DHT22;20485;50.992;5.550;2023-04-15T13:35:45;14.40;99.90
33927;DHT22;20485;50.992;5.550;2023-04-15T13:38:30;14.60;99.90
33927;DHT22;20485;50.992;5.550;2023-04-15T13:40:56;14.50;99.90
33927;DHT22;20485;50.992;5.550;2023-04-15T13:43:21;14.70;99.90
33927;DHT22;20485;50.992;5.550;2023-04-15T13:45:47;14.70;99.90
33927;DHT22;20485;50.992;5.550;2023-04-15T13:48:13;14.60;99.90
33927;DHT22;20485;50.992;5.550;2023-04-15T13:50:39;14.40;99.90
33927;DHT22;20485;50.992;5.550;2023-04-15T13:53:12;14.60;99.90
33927;DHT22;20485;50.992;5.550;2023-04-15T13:55:38;14.70;99.90
33927;DHT22;20485;50.992;5.550;2023-04-15T13:58:09;14.50;99.90
33927;DHT22;20485;50.992;5.550;2023-04-15T14:00:35;14.30;99.90
33927;DHT22;20485;50.992;5.550;2023-04-15T14:03:01;14.30;99.90
33927;DHT22;20485;50.992;5.550;2023-04-15T14:05:31;14.00;99.90
33927;DHT22;20485;50.992;5.550;2023-04-15T14:07:58;13.90;99.90
33927;DHT22;20485;50.992;5.550;2023-04-15T14:10:24;13.90;99.90
33927;DHT22;20485;50.992;5.550;2023-04-15T14:12:50;13.70;99.90
33927;DHT22;20485;50.992;5.550;2023-04-15T14:15:16;13.80;99.90
33927;DHT22;20485;50.992;5.550;2023-04-15T14:17:42;14.00;99.90
33927;DHT22;20485;50.992;5.550;2023-04-15T14:20:08;14.20;99.90
33927;DHT22;20485;50.992;5.550;2023-04-15T14:22:34;14.10;99.90
33927;DHT22;20485;50.992;5.550;2023-04-15T14:25:00;13.80;99.90
33927;DHT22;20485;50.992;5.550;2023-04-15T14:27:26;13.90;99.90
33927;DHT22;20485;50.992;5.550;2023-04-15T14:29:51;13.80;99.90
33927;DHT22;20485;50.992;5.550;2023-04-15T14:32:18;13.70;99.90
33927;DHT22;20485;50.992;5.550;2023-04-15T14:34:44;13.60;99.90
33927;DHT22;20485;50.992;5.550;2023-04-15T14:37:10;13.90;99.90
33927;DHT22;20485;50.992;5.550;2023-04-15T14:39:35;14.30;99.90
33927;DHT22;20485;50.992;5.550;2023-04-15T14:42:01;14.70;99.90
33927;DHT22;20485;50.992;5.550;2023-04-15T14:44:27;15.10;99.90
33927;DHT22;20485;50.992;5.550;2023-04-15T14:46:55;15.00;99.90
33927;DHT22;20485;50.992;5.550;2023-04-15T14:49:21;14.70;99.90
33927;DHT22;20485;50.992;5.550;2023-04-15T14:51:48;14.70;99.90
33927;DHT22;20485;50.992;5.550;2023-04-15T14:54:14;14.70;99.90
33927;DHT22;20485;50.992;5.550;2023-04-15T14:56:39;14.90;99.90
33927;DHT22;20485;50.992;5.550;2023-04-15T14:59:05;15.00;99.90
33927;DHT22;20485;50.992;5.550;2023-04-15T15:01:38;15.30;99.90
33927;DHT22;20485;50.992;5.550;2023-04-15T15:04:04;15.20;99.90
33927;DHT22;20485;50.992;5.550;2023-04-15T15:06:30;15.10;99.90
33927;DHT22;20485;50.992;5.550;2023-04-15T15:08:56;14.80;99.90
33927;DHT22;20485;50.992;5.550;2023-04-15T15:11:21;14.80;99.90
33927;DHT22;20485;50.992;5.550;2023-04-15T15:13:47;14.70;99.90
33927;DHT22;20485;50.992;5.550;2023-04-15T15:16:13;14.60;99.90
33927;DHT22;20485;50.992;5.550;2023-04-15T15:18:39;14.80;99.90
33927;DHT22;20485;50.992;5.550;2023-04-15T15:21:04;15.10;99.90
33927;DHT22;20485;50.992;5.550;2023-04-15T15:23:30;14.80;99.90
33927;DHT22;20485;50.992;5.550;2023-04-15T15:25:57;14.50;99.90
33927;DHT22;20485;50.992;5.550;2023-04-15T15:28:23;14.80;99.90
33927;DHT22;20485;50.992;5.550;2023-04-15T15:30:49;15.10;99.90
33927;DHT22;20485;50.992;5.550;2023-04-15T15:33:15;14.70;99.90
33927;DHT22;20485;50.992;5.550;2023-04-15T15:35:41;14.60;99.90
33927;DHT22;20485;50.992;5.550;2023-04-15T15:38:10;14.60;99.90
33927;DHT22;20485;50.992;5.550;2023-04-15T15:40:36;14.80;99.90
33927;DHT22;20485;50.992;5.550;2023-04-15T15:43:02;15.20;99.90
33927;DHT22;20485;50.992;5.550;2023-04-15T15:45:27;15.50;99.90
33927;DHT22;20485;50.992;5.550;2023-04-15T15:47:53;15.90;99.90
33927;DHT22;20485;50.992;5.550;2023-04-15T15:50:21;16.10;99.90
33927;DHT22;20485;50.992;5.550;2023-04-15T15:52:47;15.40;99.90
33927;DHT22;20485;50.992;5.550;2023-04-15T15:55:12;15.00;99.90
33927;DHT22;20485;50.992;5.550;2023-04-15T15:57:38;15.50;99.90
33927;DHT22;20485;50.992;5.550;2023-04-15T16:00:04;16.50;99.90